sensor_id;sensor_type;location;lat;lon;timestamp;P1;durP1;ratioP1;P2;durP2;ratioP2
58615;SDS011;44385;51.992;4.206;2023-04-06T00:02:11;28.60;;;19.25;;
58615;SDS011;44385;51.992;4.206;2023-04-06T00:04:41;30.67;;;20.00;;
58615;SDS011;44385;51.992;4.206;2023-04-06T00:07:07;35.03;;;19.70;;
58615;SDS011;44385;51.992;4.206;2023-04-06T00:09:34;25.33;;;18.13;;
58615;SDS011;44385;51.992;4.206;2023-04-06T00:12:00;30.40;;;20.98;;
58615;SDS011;44385;51.992;4.206;2023-04-06T00:14:31;26.75;;;18.75;;
58615;SDS011;44385;51.992;4.206;2023-04-06T00:16:57;25.48;;;18.73;;
58615;SDS011;44385;51.992;4.206;2023-04-06T00:19:24;29.05;;;18.55;;
58615;SDS011;44385;51.992;4.206;2023-04-06T00:21:50;25.00;;;17.77;;
58615;SDS011;44385;51.992;4.206;2023-04-06T00:24:17;25.50;;;16.90;;
58615;SDS011;44385;51.992;4.206;2023-04-06T00:26:43;26.92;;;17.38;;
58615;SDS011;44385;51.992;4.206;2023-04-06T00:29:09;28.55;;;17.58;;
58615;SDS011;44385;51.992;4.206;2023-04-06T00:31:40;23.63;;;15.82;;
58615;SDS011;44385;51.992;4.206;2023-04-06T00:34:07;23.35;;;15.88;;
58615;SDS011;44385;51.992;4.206;2023-04-06T00:36:33;19.35;;;15.15;;
58615;SDS011;44385;51.992;4.206;2023-04-06T00:39:00;21.10;;;15.27;;
58615;SDS011;44385;51.992;4.206;2023-04-06T00:41:26;25.88;;;16.58;;
58615;SDS011;44385;51.992;4.206;2023-04-06T00:43:56;23.63;;;16.02;;
58615;SDS011;44385;51.992;4.206;2023-04-06T00:46:22;22.40;;;15.55;;
58615;SDS011;44385;51.992;4.206;2023-04-06T00:48:50;24.05;;;16.55;;
58615;SDS011;44385;51.992;4.206;2023-04-06T00:51:17;20.75;;;15.52;;
58615;SDS011;44385;51.992;4.206;2023-04-06T00:53:43;21.90;;;14.68;;
58615;SDS011;44385;51.992;4.206;2023-04-06T00:56:13;24.02;;;15.65;;
58615;SDS011;44385;51.992;4.206;2023-04-06T00:58:40;21.17;;;15.68;;
58615;SDS011;44385;51.992;4.206;2023-04-06T01:01:07;21.95;;;14.73;;
58615;SDS011;44385;51.992;4.206;2023-04-06T01:03:33;20.88;;;15.57;;
58615;SDS011;44385;51.992;4.206;2023-04-06T01:06:01;19.98;;;14.65;;
58615;SDS011;44385;51.992;4.206;2023-04-06T01:08:28;23.98;;;15.52;;
58615;SDS011;44385;51.992;4.206;2023-04-06T01:10:54;21.85;;;15.20;;
58615;SDS011;44385;51.992;4.206;2023-04-06T01:13:24;22.38;;;15.55;;
58615;SDS011;44385;51.992;4.206;2023-04-06T01:15:51;20.77;;;14.38;;
58615;SDS011;44385;51.992;4.206;2023-04-06T01:18:17;22.48;;;15.85;;
58615;SDS011;44385;51.992;4.206;2023-04-06T01:20:44;21.00;;;15.68;;
58615;SDS011;44385;51.992;4.206;2023-04-06T01:23:14;22.20;;;15.30;;
58615;SDS011;44385;51.992;4.206;2023-04-06T01:25:41;24.65;;;16.27;;
58615;SDS011;44385;51.992;4.206;2023-04-06T01:28:07;22.40;;;15.75;;
58615;SDS011;44385;51.992;4.206;2023-04-06T01:30:34;20.73;;;14.63;;
58615;SDS011;44385;51.992;4.206;2023-04-06T01:33:00;20.17;;;14.15;;
58615;SDS011;44385;51.992;4.206;2023-04-06T01:35:30;19.02;;;14.25;;
58615;SDS011;44385;51.992;4.206;2023-04-06T01:37:56;26.65;;;16.50;;
58615;SDS011;44385;51.992;4.206;2023-04-06T01:40:24;21.17;;;16.08;;
58615;SDS011;44385;51.992;4.206;2023-04-06T01:42:50;24.38;;;16.00;;
58615;SDS011;44385;51.992;4.206;2023-04-06T01:45:17;22.88;;;15.88;;
58615;SDS011;44385;51.992;4.206;2023-04-06T01:47:43;25.70;;;14.98;;
58615;SDS011;44385;51.992;4.206;2023-04-06T01:50:10;25.98;;;17.05;;
58615;SDS011;44385;51.992;4.206;2023-04-06T01:52:40;22.65;;;16.13;;
58615;SDS011;44385;51.992;4.206;2023-04-06T01:55:07;22.75;;;16.05;;
58615;SDS011;44385;51.992;4.206;2023-04-06T01:57:35;22.77;;;16.13;;
58615;SDS011;44385;51.992;4.206;2023-04-06T02:00:01;27.08;;;17.73;;
58615;SDS011;44385;51.992;4.206;2023-04-06T02:02:28;23.13;;;16.42;;
58615;SDS011;44385;51.992;4.206;2023-04-06T02:04:57;25.20;;;16.23;;
58615;SDS011;44385;51.992;4.206;2023-04-06T02:07:23;27.10;;;17.13;;
58615;SDS011;44385;51.992;4.206;2023-04-06T02:09:50;22.48;;;17.10;;
58615;SDS011;44385;51.992;4.206;2023-04-06T02:12:17;26.10;;;16.92;;
58615;SDS011;44385;51.992;4.206;2023-04-06T02:14:45;26.20;;;16.23;;
58615;SDS011;44385;51.992;4.206;2023-04-06T02:17:13;24.85;;;17.42;;
58615;SDS011;44385;51.992;4.206;2023-04-06T02:19:40;24.00;;;16.85;;
58615;SDS011;44385;51.992;4.206;2023-04-06T02:22:06;23.60;;;16.35;;
58615;SDS011;44385;51.992;4.206;2023-04-06T02:24:33;25.58;;;17.45;;
58615;SDS011;44385;51.992;4.206;2023-04-06T02:26:59;26.15;;;18.13;;
58615;SDS011;44385;51.992;4.206;2023-04-06T02:29:26;24.65;;;16.13;;
58615;SDS011;44385;51.992;4.206;2023-04-06T02:31:56;26.42;;;17.20;;
58615;SDS011;44385;51.992;4.206;2023-04-06T02:34:22;27.38;;;18.02;;
58615;SDS011;44385;51.992;4.206;2023-04-06T02:36:49;24.23;;;17.60;;
58615;SDS011;44385;51.992;4.206;2023-04-06T02:39:16;26.75;;;17.25;;
58615;SDS011;44385;51.992;4.206;2023-04-06T02:41:43;25.77;;;17.55;;
58615;SDS011;44385;51.992;4.206;2023-04-06T02:44:10;27.27;;;18.73;;
58615;SDS011;44385;51.992;4.206;2023-04-06T02:46:36;29.20;;;18.27;;
58615;SDS011;44385;51.992;4.206;2023-04-06T02:49:04;26.23;;;17.83;;
58615;SDS011;44385;51.992;4.206;2023-04-06T02:51:31;31.48;;;18.35;;
58615;SDS011;44385;51.992;4.206;2023-04-06T02:53:58;28.50;;;18.73;;
58615;SDS011;44385;51.992;4.206;2023-04-06T02:56:24;27.50;;;17.23;;
58615;SDS011;44385;51.992;4.206;2023-04-06T02:58:51;27.98;;;17.60;;
58615;SDS011;44385;51.992;4.206;2023-04-06T03:01:18;28.58;;;18.33;;
58615;SDS011;44385;51.992;4.206;2023-04-06T03:03:44;25.98;;;16.58;;
58615;SDS011;44385;51.992;4.206;2023-04-06T03:06:12;23.98;;;17.45;;
58615;SDS011;44385;51.992;4.206;2023-04-06T03:08:39;25.80;;;17.70;;
58615;SDS011;44385;51.992;4.206;2023-04-06T03:11:05;27.45;;;17.98;;
58615;SDS011;44385;51.992;4.206;2023-04-06T03:13:32;28.70;;;17.48;;
58615;SDS011;44385;51.992;4.206;2023-04-06T03:15:58;29.20;;;18.75;;
58615;SDS011;44385;51.992;4.206;2023-04-06T03:18:24;26.58;;;18.55;;
58615;SDS011;44385;51.992;4.206;2023-04-06T03:20:51;26.60;;;18.38;;
58615;SDS011;44385;51.992;4.206;2023-04-06T03:23:20;27.25;;;17.35;;
58615;SDS011;44385;51.992;4.206;2023-04-06T03:25:47;25.02;;;17.58;;
58615;SDS011;44385;51.992;4.206;2023-04-06T03:28:14;30.90;;;19.38;;
58615;SDS011;44385;51.992;4.206;2023-04-06T03:30:41;26.52;;;18.45;;
58615;SDS011;44385;51.992;4.206;2023-04-06T03:33:07;27.08;;;18.33;;
58615;SDS011;44385;51.992;4.206;2023-04-06T03:35:33;30.85;;;19.05;;
58615;SDS011;44385;51.992;4.206;2023-04-06T03:38:01;29.40;;;19.88;;
58615;SDS011;44385;51.992;4.206;2023-04-06T03:40:29;28.05;;;19.58;;
58615;SDS011;44385;51.992;4.206;2023-04-06T03:42:56;28.80;;;19.20;;
58615;SDS011;44385;51.992;4.206;2023-04-06T03:45:22;31.73;;;20.45;;
58615;SDS011;44385;51.992;4.206;2023-04-06T03:47:49;31.17;;;18.98;;
58615;SDS011;44385;51.992;4.206;2023-04-06T03:50:15;27.85;;;18.90;;
58615;SDS011;44385;51.992;4.206;2023-04-06T03:52:42;30.50;;;20.25;;
58615;SDS011;44385;51.992;4.206;2023-04-06T03:55:08;28.83;;;19.63;;
58615;SDS011;44385;51.992;4.206;2023-04-06T03:57:36;32.30;;;20.55;;
58615;SDS011;44385;51.992;4.206;2023-04-06T04:00:04;31.15;;;20.95;;
58615;SDS011;44385;51.992;4.206;2023-04-06T04:02:30;33.10;;;21.85;;
58615;SDS011;44385;51.992;4.206;2023-04-06T04:04:57;34.42;;;21.92;;
58615;SDS011;44385;51.992;4.206;2023-04-06T04:07:23;30.70;;;21.60;;
58615;SDS011;44385;51.992;4.206;2023-04-06T04:09:51;30.15;;;21.73;;
58615;SDS011;44385;51.992;4.206;2023-04-06T04:12:18;31.63;;;21.38;;
58615;SDS011;44385;51.992;4.206;2023-04-06T04:14:45;34.38;;;23.75;;
58615;SDS011;44385;51.992;4.206;2023-04-06T04:17:12;34.95;;;22.63;;
58615;SDS011;44385;51.992;4.206;2023-04-06T04:19:38;36.47;;;25.08;;
58615;SDS011;44385;51.992;4.206;2023-04-06T04:22:05;37.35;;;23.27;;
58615;SDS011;44385;51.992;4.206;2023-04-06T04:24:32;34.92;;;24.10;;
58615;SDS011;44385;51.992;4.206;2023-04-06T04:26:59;37.83;;;25.42;;
58615;SDS011;44385;51.992;4.206;2023-04-06T04:29:25;40.30;;;26.42;;
58615;SDS011;44385;51.992;4.206;2023-04-06T04:31:54;39.20;;;26.63;;
58615;SDS011;44385;51.992;4.206;2023-04-06T04:34:20;38.58;;;25.52;;
58615;SDS011;44385;51.992;4.206;2023-04-06T04:36:50;46.40;;;29.10;;
58615;SDS011;44385;51.992;4.206;2023-04-06T04:39:16;43.33;;;29.60;;
58615;SDS011;44385;51.992;4.206;2023-04-06T04:41:43;41.45;;;29.38;;
58615;SDS011;44385;51.992;4.206;2023-04-06T04:44:09;48.08;;;31.33;;
58615;SDS011;44385;51.992;4.206;2023-04-06T04:46:35;47.88;;;30.90;;
58615;SDS011;44385;51.992;4.206;2023-04-06T04:49:03;43.70;;;30.90;;
58615;SDS011;44385;51.992;4.206;2023-04-06T04:51:30;45.15;;;32.42;;
58615;SDS011;44385;51.992;4.206;2023-04-06T04:53:57;46.10;;;33.00;;
58615;SDS011;44385;51.992;4.206;2023-04-06T04:56:24;51.05;;;33.88;;
58615;SDS011;44385;51.992;4.206;2023-04-06T04:58:51;46.38;;;31.85;;
58615;SDS011;44385;51.992;4.206;2023-04-06T05:01:17;49.70;;;32.75;;
58615;SDS011;44385;51.992;4.206;2023-04-06T05:03:44;51.15;;;34.80;;
58615;SDS011;44385;51.992;4.206;2023-04-06T05:06:12;49.25;;;32.67;;
58615;SDS011;44385;51.992;4.206;2023-04-06T05:08:38;55.03;;;34.10;;
58615;SDS011;44385;51.992;4.206;2023-04-06T05:11:05;52.08;;;33.08;;
58615;SDS011;44385;51.992;4.206;2023-04-06T05:13:31;51.55;;;35.03;;
58615;SDS011;44385;51.992;4.206;2023-04-06T05:15:58;52.75;;;35.38;;
58615;SDS011;44385;51.992;4.206;2023-04-06T05:18:24;54.50;;;35.78;;
58615;SDS011;44385;51.992;4.206;2023-04-06T05:20:52;56.40;;;35.83;;
58615;SDS011;44385;51.992;4.206;2023-04-06T05:23:20;51.72;;;35.28;;
58615;SDS011;44385;51.992;4.206;2023-04-06T05:25:47;53.58;;;35.85;;
58615;SDS011;44385;51.992;4.206;2023-04-06T05:28:14;51.83;;;36.83;;
58615;SDS011;44385;51.992;4.206;2023-04-06T05:30:41;60.90;;;39.33;;
58615;SDS011;44385;51.992;4.206;2023-04-06T05:33:08;57.50;;;38.08;;
58615;SDS011;44385;51.992;4.206;2023-04-06T05:35:34;57.58;;;38.85;;
58615;SDS011;44385;51.992;4.206;2023-04-06T05:38:00;61.92;;;38.58;;
58615;SDS011;44385;51.992;4.206;2023-04-06T05:40:29;59.10;;;39.45;;
58615;SDS011;44385;51.992;4.206;2023-04-06T05:42:56;62.15;;;39.53;;
58615;SDS011;44385;51.992;4.206;2023-04-06T05:45:22;60.00;;;40.75;;
58615;SDS011;44385;51.992;4.206;2023-04-06T05:47:49;63.75;;;43.13;;
58615;SDS011;44385;51.992;4.206;2023-04-06T05:50:16;66.30;;;42.85;;
58615;SDS011;44385;51.992;4.206;2023-04-06T05:52:42;59.78;;;40.92;;
58615;SDS011;44385;51.992;4.206;2023-04-06T05:55:11;63.42;;;42.95;;
58615;SDS011;44385;51.992;4.206;2023-04-06T05:57:42;63.60;;;40.50;;
58615;SDS011;44385;51.992;4.206;2023-04-06T06:00:09;66.75;;;41.90;;
58615;SDS011;44385;51.992;4.206;2023-04-06T06:02:35;64.60;;;41.05;;
58615;SDS011;44385;51.992;4.206;2023-04-06T06:05:02;63.20;;;41.42;;
58615;SDS011;44385;51.992;4.206;2023-04-06T06:07:28;63.13;;;42.65;;
58615;SDS011;44385;51.992;4.206;2023-04-06T06:09:56;68.43;;;41.78;;
58615;SDS011;44385;51.992;4.206;2023-04-06T06:12:22;64.20;;;42.90;;
58615;SDS011;44385;51.992;4.206;2023-04-06T06:14:50;60.13;;;41.10;;
58615;SDS011;44385;51.992;4.206;2023-04-06T06:17:16;58.70;;;39.05;;
58615;SDS011;44385;51.992;4.206;2023-04-06T06:19:43;58.63;;;40.50;;
58615;SDS011;44385;51.992;4.206;2023-04-06T06:22:12;57.00;;;38.55;;
58615;SDS011;44385;51.992;4.206;2023-04-06T06:24:38;59.53;;;40.20;;
58615;SDS011;44385;51.992;4.206;2023-04-06T06:27:05;52.58;;;37.88;;
58615;SDS011;44385;51.992;4.206;2023-04-06T06:29:32;65.45;;;40.05;;
58615;SDS011;44385;51.992;4.206;2023-04-06T06:32:01;49.63;;;35.58;;
58615;SDS011;44385;51.992;4.206;2023-04-06T06:34:27;58.78;;;38.13;;
58615;SDS011;44385;51.992;4.206;2023-04-06T06:36:54;59.00;;;39.47;;
58615;SDS011;44385;51.992;4.206;2023-04-06T06:39:20;57.60;;;38.90;;
58615;SDS011;44385;51.992;4.206;2023-04-06T06:41:47;60.35;;;38.55;;
58615;SDS011;44385;51.992;4.206;2023-04-06T06:44:16;59.25;;;41.58;;
58615;SDS011;44385;51.992;4.206;2023-04-06T06:46:43;56.88;;;37.78;;
58615;SDS011;44385;51.992;4.206;2023-04-06T06:49:11;50.58;;;36.85;;
58615;SDS011;44385;51.992;4.206;2023-04-06T06:54:05;46.45;;;31.17;;
58615;SDS011;44385;51.992;4.206;2023-04-06T06:56:32;43.97;;;29.88;;
58615;SDS011;44385;51.992;4.206;2023-04-06T06:59:01;36.80;;;28.48;;
58615;SDS011;44385;51.992;4.206;2023-04-06T07:01:27;41.97;;;29.48;;
58615;SDS011;44385;51.992;4.206;2023-04-06T07:03:54;36.45;;;25.55;;
58615;SDS011;44385;51.992;4.206;2023-04-06T07:06:22;33.05;;;23.33;;
58615;SDS011;44385;51.992;4.206;2023-04-06T07:08:48;37.45;;;24.15;;
58615;SDS011;44385;51.992;4.206;2023-04-06T07:11:16;31.77;;;22.42;;
58615;SDS011;44385;51.992;4.206;2023-04-06T07:13:42;32.60;;;21.63;;
58615;SDS011;44385;51.992;4.206;2023-04-06T07:16:09;31.73;;;22.15;;
58615;SDS011;44385;51.992;4.206;2023-04-06T07:18:35;28.20;;;19.73;;
58615;SDS011;44385;51.992;4.206;2023-04-06T07:21:02;25.55;;;19.50;;
58615;SDS011;44385;51.992;4.206;2023-04-06T07:23:30;34.22;;;22.35;;
58615;SDS011;44385;51.992;4.206;2023-04-06T07:25:57;30.20;;;20.25;;
58615;SDS011;44385;51.992;4.206;2023-04-06T07:28:23;31.67;;;21.95;;
58615;SDS011;44385;51.992;4.206;2023-04-06T07:30:49;31.20;;;21.45;;
58615;SDS011;44385;51.992;4.206;2023-04-06T07:33:16;27.40;;;20.05;;
58615;SDS011;44385;51.992;4.206;2023-04-06T07:35:42;28.13;;;20.27;;
58615;SDS011;44385;51.992;4.206;2023-04-06T07:38:09;32.45;;;21.70;;
58615;SDS011;44385;51.992;4.206;2023-04-06T07:40:37;32.13;;;21.65;;
58615;SDS011;44385;51.992;4.206;2023-04-06T07:43:03;32.55;;;20.85;;
58615;SDS011;44385;51.992;4.206;2023-04-06T07:45:29;27.45;;;20.58;;
58615;SDS011;44385;51.992;4.206;2023-04-06T07:47:56;26.42;;;18.13;;
58615;SDS011;44385;51.992;4.206;2023-04-06T07:50:23;30.33;;;20.38;;
58615;SDS011;44385;51.992;4.206;2023-04-06T07:52:49;23.80;;;16.63;;
58615;SDS011;44385;51.992;4.206;2023-04-06T07:55:16;26.92;;;17.73;;
58615;SDS011;44385;51.992;4.206;2023-04-06T07:57:44;34.92;;;19.48;;
58615;SDS011;44385;51.992;4.206;2023-04-06T08:00:11;29.15;;;20.95;;
58615;SDS011;44385;51.992;4.206;2023-04-06T08:02:40;25.80;;;18.92;;
58615;SDS011;44385;51.992;4.206;2023-04-06T08:05:07;25.55;;;17.70;;
58615;SDS011;44385;51.992;4.206;2023-04-06T08:07:33;21.40;;;15.88;;
58615;SDS011;44385;51.992;4.206;2023-04-06T08:10:00;20.63;;;15.50;;
58615;SDS011;44385;51.992;4.206;2023-04-06T08:12:27;21.17;;;13.68;;
58615;SDS011;44385;51.992;4.206;2023-04-06T08:14:55;21.15;;;13.65;;
58615;SDS011;44385;51.992;4.206;2023-04-06T08:17:21;22.27;;;10.73;;
58615;SDS011;44385;51.992;4.206;2023-04-06T08:19:48;16.77;;;10.13;;
58615;SDS011;44385;51.992;4.206;2023-04-06T08:22:15;21.98;;;11.07;;
58615;SDS011;44385;51.992;4.206;2023-04-06T08:24:42;22.98;;;12.45;;
58615;SDS011;44385;51.992;4.206;2023-04-06T08:27:08;26.90;;;12.23;;
58615;SDS011;44385;51.992;4.206;2023-04-06T08:29:35;24.95;;;13.50;;
58615;SDS011;44385;51.992;4.206;2023-04-06T08:32:02;21.95;;;12.27;;
58615;SDS011;44385;51.992;4.206;2023-04-06T08:34:30;23.97;;;11.40;;
58615;SDS011;44385;51.992;4.206;2023-04-06T08:36:57;25.25;;;12.27;;
58615;SDS011;44385;51.992;4.206;2023-04-06T08:39:23;22.70;;;12.27;;
58615;SDS011;44385;51.992;4.206;2023-04-06T08:41:50;19.17;;;10.55;;
58615;SDS011;44385;51.992;4.206;2023-04-06T08:44:22;17.88;;;10.90;;
58615;SDS011;44385;51.992;4.206;2023-04-06T08:46:51;17.08;;;11.07;;
58615;SDS011;44385;51.992;4.206;2023-04-06T08:49:19;18.55;;;10.10;;
58615;SDS011;44385;51.992;4.206;2023-04-06T08:51:46;15.05;;;9.00;;
58615;SDS011;44385;51.992;4.206;2023-04-06T08:54:13;14.65;;;8.55;;
58615;SDS011;44385;51.992;4.206;2023-04-06T08:56:39;14.75;;;8.88;;
58615;SDS011;44385;51.992;4.206;2023-04-06T08:59:06;14.15;;;9.13;;
58615;SDS011;44385;51.992;4.206;2023-04-06T09:01:33;14.07;;;8.85;;
58615;SDS011;44385;51.992;4.206;2023-04-06T09:04:01;16.40;;;10.50;;
58615;SDS011;44385;51.992;4.206;2023-04-06T09:06:31;14.70;;;9.32;;
58615;SDS011;44385;51.992;4.206;2023-04-06T09:08:57;16.13;;;10.32;;
58615;SDS011;44385;51.992;4.206;2023-04-06T09:11:24;16.63;;;11.77;;
58615;SDS011;44385;51.992;4.206;2023-04-06T09:13:51;18.02;;;10.15;;
58615;SDS011;44385;51.992;4.206;2023-04-06T09:16:19;14.55;;;10.55;;
58615;SDS011;44385;51.992;4.206;2023-04-06T09:18:45;19.05;;;11.77;;
58615;SDS011;44385;51.992;4.206;2023-04-06T09:21:12;15.80;;;10.57;;
58615;SDS011;44385;51.992;4.206;2023-04-06T09:23:40;20.13;;;10.85;;
58615;SDS011;44385;51.992;4.206;2023-04-06T09:26:07;16.05;;;10.90;;
58615;SDS011;44385;51.992;4.206;2023-04-06T09:28:41;20.60;;;12.65;;
58615;SDS011;44385;51.992;4.206;2023-04-06T09:31:07;18.88;;;12.10;;
58615;SDS011;44385;51.992;4.206;2023-04-06T09:33:36;17.38;;;11.98;;
58615;SDS011;44385;51.992;4.206;2023-04-06T09:36:03;18.25;;;11.88;;
58615;SDS011;44385;51.992;4.206;2023-04-06T09:38:29;20.13;;;13.70;;
58615;SDS011;44385;51.992;4.206;2023-04-06T09:40:57;17.10;;;12.13;;
58615;SDS011;44385;51.992;4.206;2023-04-06T09:43:24;21.23;;;12.95;;
58615;SDS011;44385;51.992;4.206;2023-04-06T09:45:51;21.92;;;11.82;;
58615;SDS011;44385;51.992;4.206;2023-04-06T09:48:17;17.38;;;11.70;;
58615;SDS011;44385;51.992;4.206;2023-04-06T09:50:44;17.15;;;12.05;;
58615;SDS011;44385;51.992;4.206;2023-04-06T09:53:11;21.48;;;12.77;;
58615;SDS011;44385;51.992;4.206;2023-04-06T09:55:40;16.50;;;11.65;;
58615;SDS011;44385;51.992;4.206;2023-04-06T09:58:09;16.23;;;11.30;;
58615;SDS011;44385;51.992;4.206;2023-04-06T10:00:40;19.30;;;12.32;;
58615;SDS011;44385;51.992;4.206;2023-04-06T10:03:08;15.63;;;11.20;;
58615;SDS011;44385;51.992;4.206;2023-04-06T10:05:42;17.05;;;11.20;;
58615;SDS011;44385;51.992;4.206;2023-04-06T10:08:09;16.48;;;11.65;;
58615;SDS011;44385;51.992;4.206;2023-04-06T10:10:37;19.17;;;11.25;;
58615;SDS011;44385;51.992;4.206;2023-04-06T10:13:03;19.38;;;12.80;;
58615;SDS011;44385;51.992;4.206;2023-04-06T10:15:33;19.45;;;12.82;;
58615;SDS011;44385;51.992;4.206;2023-04-06T10:17:59;19.13;;;12.23;;
58615;SDS011;44385;51.992;4.206;2023-04-06T10:20:31;23.80;;;14.00;;
58615;SDS011;44385;51.992;4.206;2023-04-06T10:23:01;21.50;;;14.23;;
58615;SDS011;44385;51.992;4.206;2023-04-06T10:25:31;21.50;;;13.73;;
58615;SDS011;44385;51.992;4.206;2023-04-06T10:28:01;19.27;;;13.05;;
58615;SDS011;44385;51.992;4.206;2023-04-06T10:30:32;21.35;;;14.02;;
58615;SDS011;44385;51.992;4.206;2023-04-06T10:32:58;18.25;;;13.55;;
58615;SDS011;44385;51.992;4.206;2023-04-06T10:35:35;21.60;;;14.40;;
58615;SDS011;44385;51.992;4.206;2023-04-06T10:38:03;19.55;;;13.27;;
58615;SDS011;44385;51.992;4.206;2023-04-06T10:40:29;18.52;;;13.13;;
58615;SDS011;44385;51.992;4.206;2023-04-06T10:43:06;17.10;;;13.52;;
58615;SDS011;44385;51.992;4.206;2023-04-06T10:45:34;19.60;;;13.68;;
58615;SDS011;44385;51.992;4.206;2023-04-06T10:48:05;19.67;;;14.65;;
58615;SDS011;44385;51.992;4.206;2023-04-06T10:50:38;19.88;;;14.77;;
58615;SDS011;44385;51.992;4.206;2023-04-06T10:53:06;19.73;;;14.32;;
58615;SDS011;44385;51.992;4.206;2023-04-06T10:55:33;21.02;;;14.10;;
58615;SDS011;44385;51.992;4.206;2023-04-06T10:58:00;20.58;;;14.63;;
58615;SDS011;44385;51.992;4.206;2023-04-06T11:00:27;21.90;;;13.85;;
58615;SDS011;44385;51.992;4.206;2023-04-06T11:02:59;22.33;;;14.27;;
58615;SDS011;44385;51.992;4.206;2023-04-06T11:05:29;19.65;;;13.30;;
58615;SDS011;44385;51.992;4.206;2023-04-06T11:07:56;21.52;;;14.23;;
58615;SDS011;44385;51.992;4.206;2023-04-06T11:10:22;21.52;;;15.13;;
58615;SDS011;44385;51.992;4.206;2023-04-06T11:12:52;18.33;;;12.82;;
58615;SDS011;44385;51.992;4.206;2023-04-06T11:15:19;18.13;;;12.68;;
58615;SDS011;44385;51.992;4.206;2023-04-06T11:17:45;20.15;;;12.43;;
58615;SDS011;44385;51.992;4.206;2023-04-06T11:20:16;17.75;;;12.38;;
58615;SDS011;44385;51.992;4.206;2023-04-06T11:22:48;18.08;;;13.27;;
58615;SDS011;44385;51.992;4.206;2023-04-06T11:25:18;16.80;;;11.48;;
58615;SDS011;44385;51.992;4.206;2023-04-06T11:27:45;19.23;;;12.48;;
58615;SDS011;44385;51.992;4.206;2023-04-06T11:30:12;19.27;;;13.05;;
58615;SDS011;44385;51.992;4.206;2023-04-06T11:32:39;19.15;;;13.52;;
58615;SDS011;44385;51.992;4.206;2023-04-06T11:35:07;21.55;;;14.60;;
58615;SDS011;44385;51.992;4.206;2023-04-06T11:37:35;19.23;;;12.90;;
58615;SDS011;44385;51.992;4.206;2023-04-06T11:40:02;21.13;;;14.50;;
58615;SDS011;44385;51.992;4.206;2023-04-06T11:42:29;20.10;;;14.82;;
58615;SDS011;44385;51.992;4.206;2023-04-06T11:44:56;19.60;;;12.85;;
58615;SDS011;44385;51.992;4.206;2023-04-06T11:47:28;21.73;;;14.23;;
58615;SDS011;44385;51.992;4.206;2023-04-06T11:49:55;21.17;;;13.77;;
58615;SDS011;44385;51.992;4.206;2023-04-06T11:52:24;22.87;;;14.07;;
58615;SDS011;44385;51.992;4.206;2023-04-06T11:54:53;22.75;;;14.57;;
58615;SDS011;44385;51.992;4.206;2023-04-06T11:57:21;21.83;;;13.95;;
58615;SDS011;44385;51.992;4.206;2023-04-06T11:59:49;22.08;;;14.48;;
58615;SDS011;44385;51.992;4.206;2023-04-06T12:02:16;21.23;;;14.23;;
58615;SDS011;44385;51.992;4.206;2023-04-06T12:04:42;19.45;;;12.98;;
58615;SDS011;44385;51.992;4.206;2023-04-06T12:07:09;19.88;;;14.07;;
58615;SDS011;44385;51.992;4.206;2023-04-06T12:09:35;22.80;;;15.13;;
58615;SDS011;44385;51.992;4.206;2023-04-06T12:12:03;24.65;;;16.20;;
58615;SDS011;44385;51.992;4.206;2023-04-06T12:14:30;28.25;;;17.27;;
58615;SDS011;44385;51.992;4.206;2023-04-06T12:16:56;20.73;;;14.38;;
58615;SDS011;44385;51.992;4.206;2023-04-06T12:19:23;20.38;;;13.80;;
58615;SDS011;44385;51.992;4.206;2023-04-06T12:21:50;19.75;;;13.90;;
58615;SDS011;44385;51.992;4.206;2023-04-06T12:24:17;20.60;;;14.88;;
58615;SDS011;44385;51.992;4.206;2023-04-06T12:26:43;17.38;;;11.30;;
58615;SDS011;44385;51.992;4.206;2023-04-06T12:29:12;18.75;;;12.20;;
58615;SDS011;44385;51.992;4.206;2023-04-06T12:31:39;19.60;;;14.13;;
58615;SDS011;44385;51.992;4.206;2023-04-06T12:34:07;18.00;;;13.20;;
58615;SDS011;44385;51.992;4.206;2023-04-06T12:36:34;19.23;;;13.18;;
58615;SDS011;44385;51.992;4.206;2023-04-06T12:39:00;15.15;;;11.90;;
58615;SDS011;44385;51.992;4.206;2023-04-06T12:41:27;18.42;;;12.05;;
58615;SDS011;44385;51.992;4.206;2023-04-06T12:43:54;15.45;;;11.63;;
58615;SDS011;44385;51.992;4.206;2023-04-06T12:46:22;16.17;;;12.18;;
58615;SDS011;44385;51.992;4.206;2023-04-06T12:48:50;15.23;;;11.48;;
58615;SDS011;44385;51.992;4.206;2023-04-06T12:51:18;17.27;;;11.03;;
58615;SDS011;44385;51.992;4.206;2023-04-06T12:53:45;15.95;;;11.65;;
58615;SDS011;44385;51.992;4.206;2023-04-06T12:56:13;13.13;;;10.30;;
58615;SDS011;44385;51.992;4.206;2023-04-06T12:58:40;13.10;;;10.50;;
58615;SDS011;44385;51.992;4.206;2023-04-06T13:01:07;18.27;;;12.98;;
58615;SDS011;44385;51.992;4.206;2023-04-06T13:03:35;13.38;;;10.30;;
58615;SDS011;44385;51.992;4.206;2023-04-06T13:06:02;15.93;;;10.55;;
58615;SDS011;44385;51.992;4.206;2023-04-06T13:08:29;15.23;;;11.60;;
58615;SDS011;44385;51.992;4.206;2023-04-06T13:10:55;19.27;;;12.68;;
58615;SDS011;44385;51.992;4.206;2023-04-06T13:13:22;14.15;;;10.93;;
58615;SDS011;44385;51.992;4.206;2023-04-06T13:15:51;16.83;;;12.35;;
58615;SDS011;44385;51.992;4.206;2023-04-06T13:18:17;22.05;;;14.75;;
58615;SDS011;44385;51.992;4.206;2023-04-06T13:20:46;18.52;;;13.80;;
58615;SDS011;44385;51.992;4.206;2023-04-06T13:23:12;15.73;;;12.25;;
58615;SDS011;44385;51.992;4.206;2023-04-06T13:25:39;16.75;;;12.13;;
58615;SDS011;44385;51.992;4.206;2023-04-06T13:28:06;18.35;;;13.20;;
58615;SDS011;44385;51.992;4.206;2023-04-06T13:30:33;16.70;;;13.35;;
58615;SDS011;44385;51.992;4.206;2023-04-06T13:32:59;14.40;;;11.13;;
58615;SDS011;44385;51.992;4.206;2023-04-06T13:35:25;19.90;;;14.57;;
58615;SDS011;44385;51.992;4.206;2023-04-06T13:37:56;16.48;;;12.50;;
58615;SDS011;44385;51.992;4.206;2023-04-06T13:40:23;20.48;;;14.18;;
58615;SDS011;44385;51.992;4.206;2023-04-06T13:42:49;19.00;;;14.05;;
58615;SDS011;44385;51.992;4.206;2023-04-06T13:45:16;17.88;;;12.90;;
58615;SDS011;44385;51.992;4.206;2023-04-06T13:47:42;16.33;;;13.43;;
58615;SDS011;44385;51.992;4.206;2023-04-06T13:50:09;16.08;;;12.52;;
58615;SDS011;44385;51.992;4.206;2023-04-06T13:52:36;19.90;;;14.70;;
58615;SDS011;44385;51.992;4.206;2023-04-06T13:55:04;17.42;;;12.98;;
58615;SDS011;44385;51.992;4.206;2023-04-06T13:57:30;18.40;;;13.45;;
58615;SDS011;44385;51.992;4.206;2023-04-06T13:59:57;19.83;;;14.82;;
58615;SDS011;44385;51.992;4.206;2023-04-06T14:02:23;21.13;;;14.95;;
58615;SDS011;44385;51.992;4.206;2023-04-06T14:04:52;19.02;;;13.88;;
58615;SDS011;44385;51.992;4.206;2023-04-06T14:07:19;19.70;;;14.30;;
58615;SDS011;44385;51.992;4.206;2023-04-06T14:09:45;19.15;;;14.73;;
58615;SDS011;44385;51.992;4.206;2023-04-06T14:12:13;18.00;;;15.10;;
58615;SDS011;44385;51.992;4.206;2023-04-06T14:14:40;16.27;;;13.25;;
58615;SDS011;44385;51.992;4.206;2023-04-06T14:17:07;18.67;;;13.48;;
58615;SDS011;44385;51.992;4.206;2023-04-06T14:19:33;19.35;;;14.80;;
58615;SDS011;44385;51.992;4.206;2023-04-06T14:22:01;19.67;;;13.90;;
58615;SDS011;44385;51.992;4.206;2023-04-06T14:24:27;20.63;;;14.95;;